Skip Navigation Links Skip Navigation Links

Current Weather

Lehigh Valley International, Allentown, Penn.

For information only: do not use for flight planning or navigation.
Latest weather
Observation time Friday, August 14, 2020 12:51 PM EDT
Local time Friday, August 14, 2020 1:19 PM EDT
Flight conditions Visual Meteorological Conditions
Winds
Wind direction Northeast (50°)
Wind speed 15 mph
Visibility 10 mi.
Sky condition
Ceiling unlimited
Sky clear
Temperature 83°F
Dewpoint 65°F
Altimeter 30.01 in.Hg
Derived measurements
Relative humidity 55%
Heat index 85°F
Density altitude 2110 ft.
Sea-level pressure 30.00 in.Hg
Remarks
Automated weather observing station with precipitation discriminator.
METAR KABE 141651Z 05013KT 10SM CLR 28/18 A3001 RMK AO2 SLP160 T02830183

Settings

Location code

InnerDrive.Weather 4.0.6770.0 Release CLR 4.0.30319.42000
Copyright ©2018 Inner Drive Technology. All rights reserved. Portions Copyright ©1986-2018 David Braverman.

Find weather

Site navigation


Skip Navigation Links

Place info

Page info

PayPal - The safer, easier way to pay online!

Return home.

Copyright ©2020 Inner Drive Technology. Purveyors of fine, hand-crafted computer software. Page printed 2020-08-14T17:19:30 UTC.